Tuesday, October 23, 2018, 9:42 PM EDT
Back to Local

KIJD, Willimantic Windham Airport

Location: North Windham, CT, United States Lat: 41.75
Local Time: 9:42 PM EDT ( 1:42 GMT) Lon: -72.183
Time Zone: US/Eastern Elev: 246 ft

Show me the last for .
Show Decoded

2018-10-23 20:52 METAR KIJD 240052Z AUTO 25003KT 10SM SCT110 09/08 A2992 RMK AO2 SLP132 T00890078
                 =
2018-10-23 19:52 METAR KIJD 232352Z AUTO 23005KT 10SM FEW030 BKN065 OVC120 10/07 A2993 RMK AO2
                 RAB27E48 SLP135 P0001 60001 T01000072 10150 20100 53018 =
2018-10-23 18:52 METAR KIJD 232252Z AUTO 25008KT 10SM BKN070 OVC090 12/06 A2991 RMK AO2 SLP128
                 T01220061 =
2018-10-23 17:52 METAR KIJD 232152Z AUTO 22004KT 10SM CLR 13/08 A2989 RMK AO2 LTG DSNT NE SLP121
                 T01330078 =
2018-10-23 16:52 METAR KIJD 232052Z AUTO 20006KT 10SM FEW041 15/11 A2988 RMK AO2 LTG DSNT N
                 SLP117 60000 T01500106 56030 =
2018-10-23 15:52 METAR KIJD 231952Z AUTO 14004KT 10SM SCT070 BKN100 14/11 A2990 RMK AO2 LTG DSNT
                 N SLP125 T01390111 =
2018-10-23 14:52 METAR KIJD 231852Z AUTO 10004KT 10SM FEW028 SCT033 SCT100 13/10 A2992 RMK AO2
                 LTG DSNT E RAE05 SLP133 P0000 T01330100 =
2018-10-23 13:52 METAR KIJD 231752Z AUTO 00000KT 10SM -RA SCT028 BKN040 OVC110 12/10 A2996 RMK
                 AO2 RAB32 SLP148 P0000 60000 T01170100 10133 20028 58039 =
2018-10-23 12:52 METAR KIJD 231652Z AUTO 17006KT 10SM FEW032 BKN050 OVC100 13/09 A3001 RMK AO2
                 SLP162 T01280089 =
2018-10-23 11:52 METAR KIJD 231552Z AUTO 00000KT 10SM FEW049 OVC080 11/08 A3005 RMK AO2 SLP176
                 T01110078 =
2018-10-23 10:52 METAR KIJD 231452Z AUTO 00000KT 10SM SCT026 SCT031 OVC090 09/06 A3008 RMK AO2
                 SLP187 T00890056 58012 =
2018-10-23 09:52 METAR KIJD 231352Z AUTO 00000KT 10SM BKN100 07/04 A3010 RMK AO2 SLP194 T00670044
                 =
2018-10-23 08:52 METAR KIJD 231252Z AUTO 00000KT 10SM OVC110 04/03 A3012 RMK AO2 SLP199 T00390033
                 =
2018-10-23 07:52 METAR KIJD 231152Z AUTO 00000KT 10SM OVC100 03/03 A3012 RMK AO2 SLP199 T00280028
                 10028 20011 56011 =
2018-10-23 06:52 METAR KIJD 231052Z AUTO 00000KT 10SM OVC100 03/03 A3013 RMK AO2 SLP205 T00280028
                 =
2018-10-23 05:52 METAR KIJD 230952Z AUTO 00000KT 10SM OVC095 02/02 A3013 RMK AO2 SLP204 T00220022
                 =
2018-10-23 04:52 METAR KIJD 230852Z AUTO 00000KT 10SM OVC085 02/02 A3015 RMK AO2 SLP210 T00220017
                 58011 =
2018-10-23 03:52 METAR KIJD 230752Z AUTO 00000KT 10SM OVC090 02/02 A3016 RMK AO2 SLP214 T00170017
                 =
2018-10-23 02:52 METAR KIJD 230652Z AUTO 00000KT 10SM OVC080 02/02 A3018 RMK AO2 SLP219 T00170017
                 =
2018-10-23 01:52 METAR KIJD 230552Z AUTO 00000KT 10SM OVC080 01/01 A3018 RMK AO2 SLP221 T00110011
                 10050 20000 58007 =
2018-10-23 00:52 METAR KIJD 230452Z AUTO 00000KT 10SM BKN080 01/01 A3020 RMK AO2 SLP226 T00060006
                 400891039 =
2018-10-22 23:52 METAR KIJD 230352Z AUTO 00000KT 10SM BKN060 01/01 A3020 RMK AO2 SLP227 T00110006
                 =
2018-10-22 22:52 METAR KIJD 230252Z AUTO 00000KT 10SM CLR 01/01 A3020 RMK AO2 SLP228 T00110011
                 51004 =
2018-10-22 21:52 METAR KIJD 230152Z AUTO 00000KT 10SM CLR 02/02 A3020 RMK AO2 SLP229 T00220017 =

Support USWX by starting your Amazon purchase here.